createdAt,value
2022-10-22T00:01:12.820Z,14.00
2022-10-22T00:03:40.902Z,13.90
2022-10-22T00:06:09.353Z,14.00
2022-10-22T00:08:37.447Z,14.10
2022-10-22T00:11:13.714Z,14.10
2022-10-22T00:13:48.330Z,14.00
2022-10-22T00:16:16.509Z,13.90
2022-10-22T00:18:44.611Z,13.90
2022-10-22T00:21:13.134Z,13.90
2022-10-22T00:23:42.272Z,13.80
2022-10-22T00:26:11.017Z,13.80
2022-10-22T00:28:39.568Z,13.90
2022-10-22T00:31:08.930Z,13.90
2022-10-22T00:33:36.953Z,13.90
2022-10-22T00:36:05.794Z,14.00
2022-10-22T00:38:34.161Z,13.90
2022-10-22T00:43:30.056Z,14.00
2022-10-22T00:45:58.084Z,14.00
2022-10-22T00:48:30.838Z,14.00
2022-10-22T00:51:00.293Z,14.00
2022-10-22T00:53:33.011Z,13.90
2022-10-22T00:56:02.107Z,13.90
2022-10-22T00:58:33.899Z,13.80
2022-10-22T01:01:04.471Z,13.80
2022-10-22T01:03:34.074Z,13.80
2022-10-22T01:06:05.109Z,13.80
2022-10-22T01:08:39.719Z,13.80
2022-10-22T01:11:15.742Z,13.80
2022-10-22T01:13:55.198Z,13.70
2022-10-22T01:16:33.557Z,13.70
2022-10-22T01:19:15.005Z,13.70
2022-10-22T01:21:46.505Z,13.70
2022-10-22T01:24:36.652Z,13.70
2022-10-22T01:27:16.400Z,13.70
2022-10-22T01:29:49.409Z,13.70
2022-10-22T01:32:20.269Z,13.70
2022-10-22T01:34:52.087Z,13.70
2022-10-22T01:37:23.400Z,13.70
2022-10-22T01:39:52.986Z,13.60
2022-10-22T01:42:20.992Z,13.70
2022-10-22T01:44:50.305Z,13.70
2022-10-22T01:47:27.173Z,13.70
2022-10-22T01:50:20.401Z,13.70
2022-10-22T01:52:54.706Z,13.80
2022-10-22T01:55:29.699Z,13.80
2022-10-22T01:58:09.366Z,13.70
2022-10-22T02:00:45.727Z,13.70
2022-10-22T02:03:21.258Z,13.80
2022-10-22T02:05:55.613Z,13.80
2022-10-22T02:08:26.309Z,13.80
2022-10-22T02:10:54.938Z,13.80
2022-10-22T02:13:29.220Z,13.80
2022-10-22T02:16:00.031Z,13.70
2022-10-22T02:18:33.565Z,13.60
2022-10-22T02:21:03.743Z,13.60
2022-10-22T02:23:31.779Z,13.60
2022-10-22T02:26:04.673Z,13.60
2022-10-22T02:28:38.410Z,13.60
2022-10-22T02:31:14.456Z,13.60
2022-10-22T02:33:47.146Z,13.60
2022-10-22T02:36:15.503Z,13.60
2022-10-22T02:38:44.014Z,13.50
2022-10-22T02:41:12.018Z,13.50
2022-10-22T02:43:44.378Z,13.40
2022-10-22T02:46:13.876Z,13.40
2022-10-22T02:48:41.898Z,13.40
2022-10-22T02:51:09.890Z,13.40
2022-10-22T02:53:37.864Z,13.30
2022-10-22T02:56:06.155Z,13.20
2022-10-22T02:58:34.284Z,13.20
2022-10-22T03:01:02.630Z,13.10
2022-10-22T03:03:32.094Z,13.10
2022-10-22T03:06:01.554Z,13.00
2022-10-22T03:08:29.642Z,13.00
2022-10-22T03:10:57.646Z,13.00
2022-10-22T03:13:25.622Z,12.90
2022-10-22T03:15:53.570Z,12.80
2022-10-22T03:18:21.627Z,12.90
2022-10-22T03:20:51.206Z,12.80
2022-10-22T03:23:21.009Z,13.00
2022-10-22T03:25:50.839Z,12.90
2022-10-22T03:28:19.784Z,12.80
2022-10-22T03:30:47.972Z,12.80
2022-10-22T03:33:16.002Z,12.80
2022-10-22T03:35:47.633Z,12.80
2022-10-22T03:38:17.219Z,12.80
2022-10-22T03:40:47.185Z,12.80
2022-10-22T03:43:15.394Z,12.70
2022-10-22T03:45:43.366Z,12.60
2022-10-22T03:48:11.370Z,12.60
2022-10-22T03:50:39.308Z,12.60
2022-10-22T03:53:10.603Z,12.60
2022-10-22T03:55:42.093Z,12.60
2022-10-22T03:58:10.079Z,12.50
2022-10-22T04:00:38.234Z,12.50
2022-10-22T04:03:06.255Z,12.50
2022-10-22T04:05:34.654Z,12.40
2022-10-22T04:08:03.037Z,12.50
2022-10-22T04:10:31.063Z,12.40
2022-10-22T04:13:00.524Z,12.50
2022-10-22T04:15:29.061Z,12.50
2022-10-22T04:17:57.398Z,12.40
2022-10-22T04:20:25.535Z,12.50
2022-10-22T04:22:53.679Z,12.50
2022-10-22T04:25:21.781Z,12.40
2022-10-22T04:27:49.811Z,12.60
2022-10-22T04:30:19.384Z,12.60
2022-10-22T04:32:47.293Z,12.60
2022-10-22T04:35:15.555Z,12.70
2022-10-22T04:37:43.559Z,12.80
2022-10-22T04:40:13.017Z,12.90
2022-10-22T04:42:41.203Z,12.80
2022-10-22T04:45:10.451Z,12.70
2022-10-22T04:47:40.221Z,12.80
2022-10-22T04:50:09.343Z,12.80
2022-10-22T04:52:37.315Z,12.70
2022-10-22T04:55:05.787Z,12.70
2022-10-22T04:57:34.022Z,12.70
2022-10-22T05:00:02.142Z,12.70
2022-10-22T05:02:30.220Z,12.60
2022-10-22T05:04:59.634Z,12.40
2022-10-22T05:07:27.645Z,12.50
2022-10-22T05:09:55.732Z,12.50
2022-10-22T05:12:23.700Z,12.50
2022-10-22T05:14:51.747Z,12.50
2022-10-22T05:17:19.794Z,12.60
2022-10-22T05:19:47.841Z,12.50
2022-10-22T05:22:17.432Z,12.60
2022-10-22T05:24:45.495Z,12.60
2022-10-22T05:27:13.502Z,12.60
2022-10-22T05:29:41.639Z,12.60
2022-10-22T05:32:09.840Z,12.50
2022-10-22T05:34:38.045Z,12.40
2022-10-22T05:37:06.208Z,12.40
2022-10-22T05:39:36.969Z,12.50
2022-10-22T05:42:05.208Z,12.40
2022-10-22T05:44:33.262Z,12.50
2022-10-22T05:47:01.294Z,12.50
2022-10-22T05:49:29.390Z,12.60
2022-10-22T05:51:57.352Z,12.60
2022-10-22T05:54:25.311Z,12.70
2022-10-22T05:56:55.571Z,12.60
2022-10-22T05:59:24.513Z,12.70
2022-10-22T06:01:52.652Z,12.70
2022-10-22T06:04:20.731Z,12.60
2022-10-22T06:06:51.145Z,12.50
2022-10-22T06:09:22.938Z,12.40
2022-10-22T06:11:51.760Z,12.40
2022-10-22T06:14:21.678Z,12.40
2022-10-22T06:16:50.383Z,12.50
2022-10-22T06:19:21.522Z,12.60
2022-10-22T06:21:49.998Z,12.80
2022-10-22T06:24:18.246Z,13.00
2022-10-22T06:26:46.410Z,13.10
2022-10-22T06:29:14.414Z,13.00
2022-10-22T06:31:43.785Z,13.00
2022-10-22T06:34:14.869Z,13.10
2022-10-22T06:36:45.140Z,13.00
2022-10-22T06:39:15.394Z,12.80
2022-10-22T06:41:43.568Z,12.70
2022-10-22T06:44:15.535Z,12.70
2022-10-22T06:46:45.105Z,12.70
2022-10-22T06:49:14.990Z,12.80
2022-10-22T06:51:43.241Z,12.70
2022-10-22T06:54:12.459Z,12.80
2022-10-22T06:56:40.509Z,12.80
2022-10-22T06:59:08.607Z,12.70
2022-10-22T07:01:37.556Z,12.80
2022-10-22T07:04:09.169Z,12.80
2022-10-22T07:06:37.244Z,12.80
2022-10-22T07:09:05.544Z,12.80
2022-10-22T07:11:40.653Z,12.80
2022-10-22T07:14:08.929Z,12.90
2022-10-22T07:16:37.850Z,13.00
2022-10-22T07:19:07.391Z,13.00
2022-10-22T07:21:35.446Z,13.00
2022-10-22T07:24:03.329Z,13.00
2022-10-22T07:26:32.666Z,13.10
2022-10-22T07:29:00.982Z,13.10
2022-10-22T07:31:29.246Z,13.10
2022-10-22T07:33:57.423Z,13.10
2022-10-22T07:36:26.987Z,13.10
2022-10-22T07:38:57.700Z,13.10
2022-10-22T07:41:26.342Z,13.00
2022-10-22T07:43:54.318Z,13.00
2022-10-22T07:46:22.593Z,13.00
2022-10-22T07:48:50.718Z,12.90
2022-10-22T07:51:18.801Z,13.10
2022-10-22T07:53:48.254Z,13.10
2022-10-22T07:56:16.223Z,13.20
2022-10-22T07:58:44.238Z,13.20
2022-10-22T08:01:12.405Z,13.30
2022-10-22T08:03:40.298Z,13.30
2022-10-22T08:06:08.848Z,13.40
2022-10-22T08:08:36.957Z,13.40
2022-10-22T08:11:06.563Z,13.40
2022-10-22T08:13:34.514Z,13.40
2022-10-22T08:16:02.865Z,13.50
2022-10-22T08:18:31.371Z,13.50
2022-10-22T08:20:59.336Z,13.50
2022-10-22T08:23:28.958Z,13.60
2022-10-22T08:25:57.990Z,13.60
2022-10-22T08:28:28.706Z,13.60
2022-10-22T08:30:56.981Z,13.70
2022-10-22T08:33:24.961Z,13.80
2022-10-22T08:35:53.546Z,13.80
2022-10-22T08:38:22.057Z,13.90
2022-10-22T08:40:53.351Z,13.90
2022-10-22T08:44:02.943Z,14.10
2022-10-22T08:46:53.101Z,14.00
2022-10-22T08:49:25.511Z,14.00
2022-10-22T08:51:53.633Z,14.00
2022-10-22T08:54:31.765Z,14.00
2022-10-22T08:57:12.974Z,14.00
2022-10-22T08:59:47.907Z,14.10
2022-10-22T09:02:35.967Z,14.10
2022-10-22T09:05:17.068Z,14.10
2022-10-22T09:07:49.991Z,14.10
2022-10-22T09:10:19.276Z,14.10
2022-10-22T09:12:48.904Z,14.10
2022-10-22T09:15:19.885Z,14.10
2022-10-22T09:18:00.684Z,14.20
2022-10-22T09:20:39.657Z,14.20
2022-10-22T09:23:23.535Z,14.30
2022-10-22T09:25:53.129Z,14.40
2022-10-22T09:28:21.119Z,14.40
2022-10-22T09:30:50.489Z,14.50
2022-10-22T09:33:25.018Z,14.50
2022-10-22T09:35:55.483Z,14.60
2022-10-22T09:38:27.999Z,14.60
2022-10-22T09:40:58.724Z,14.70
2022-10-22T09:43:27.084Z,14.70
2022-10-22T09:46:00.490Z,14.70
2022-10-22T09:48:34.319Z,14.70
2022-10-22T09:51:07.496Z,14.80
2022-10-22T09:53:38.912Z,14.80
2022-10-22T09:56:10.825Z,14.90
2022-10-22T09:58:49.159Z,14.90
2022-10-22T10:01:21.018Z,14.90
2022-10-22T10:03:50.304Z,15.00
2022-10-22T10:06:23.199Z,15.00
2022-10-22T10:08:51.801Z,15.10
2022-10-22T10:11:29.369Z,15.20
2022-10-22T10:14:09.159Z,15.40
2022-10-22T10:16:50.677Z,15.70
2022-10-22T10:19:28.970Z,15.80
2022-10-22T10:22:06.663Z,16.00
2022-10-22T10:24:46.287Z,16.00
2022-10-22T10:27:21.829Z,16.10
2022-10-22T10:29:58.351Z,16.20
2022-10-22T10:32:45.463Z,16.10
2022-10-22T10:35:22.790Z,16.20
2022-10-22T10:38:03.960Z,16.20
2022-10-22T10:40:43.590Z,16.30
2022-10-22T10:43:16.660Z,16.30
2022-10-22T10:45:55.793Z,16.30
2022-10-22T10:48:38.032Z,16.30
2022-10-22T10:51:13.090Z,16.30
2022-10-22T10:53:55.469Z,16.30
2022-10-22T10:56:36.828Z,16.30
2022-10-22T10:59:17.551Z,16.30
2022-10-22T11:02:00.666Z,16.30
2022-10-22T11:04:49.049Z,16.40
2022-10-22T11:07:34.243Z,16.50
2022-10-22T11:10:10.626Z,16.40
2022-10-22T11:12:43.747Z,16.50
2022-10-22T11:15:29.185Z,16.50
2022-10-22T11:18:03.545Z,16.50
2022-10-22T11:20:44.686Z,16.50
2022-10-22T11:23:19.878Z,16.50
2022-10-22T11:25:50.413Z,16.50
2022-10-22T11:28:22.070Z,16.50
2022-10-22T11:30:57.588Z,16.50
2022-10-22T11:33:30.291Z,16.60
2022-10-22T11:36:03.656Z,16.60
2022-10-22T11:38:35.035Z,16.70
2022-10-22T11:41:06.272Z,16.70
2022-10-22T11:43:36.361Z,16.90
2022-10-22T11:46:26.676Z,17.00
2022-10-22T11:49:16.374Z,17.00
2022-10-22T11:51:47.276Z,17.10
2022-10-22T11:54:42.609Z,17.10
2022-10-22T11:57:28.081Z,17.10
2022-10-22T11:59:59.521Z,17.10
2022-10-22T12:02:43.048Z,17.10
2022-10-22T12:05:42.681Z,17.10
2022-10-22T12:08:25.856Z,17.20
2022-10-22T12:11:21.571Z,17.10
2022-10-22T12:14:03.995Z,17.00
2022-10-22T12:16:55.158Z,16.80
2022-10-22T12:19:33.009Z,16.70
2022-10-22T12:22:07.333Z,16.60
2022-10-22T12:24:40.453Z,16.50
2022-10-22T12:27:22.445Z,16.60
2022-10-22T12:29:55.027Z,16.70
2022-10-22T12:32:23.423Z,16.70
2022-10-22T12:34:53.532Z,16.80
2022-10-22T12:37:21.610Z,16.90
2022-10-22T12:39:52.139Z,17.00
2022-10-22T12:42:21.926Z,17.10
2022-10-22T12:44:49.868Z,17.20
2022-10-22T12:47:19.097Z,17.30
2022-10-22T12:49:50.732Z,17.50
2022-10-22T12:52:21.317Z,17.60
2022-10-22T12:54:53.493Z,17.60
2022-10-22T12:57:22.246Z,17.60
2022-10-22T12:59:52.203Z,17.70
2022-10-22T13:02:24.329Z,17.70
2022-10-22T13:05:17.807Z,17.70
2022-10-22T13:07:49.487Z,17.40
2022-10-22T13:10:23.911Z,17.30
2022-10-22T13:12:55.011Z,17.40
2022-10-22T13:15:35.232Z,17.40
2022-10-22T13:18:04.925Z,17.40
2022-10-22T13:20:33.417Z,17.40
2022-10-22T13:23:02.808Z,17.40
2022-10-22T13:25:33.529Z,17.30
2022-10-22T13:28:04.065Z,17.30
2022-10-22T13:30:33.980Z,17.30
2022-10-22T13:33:04.197Z,17.30
2022-10-22T13:35:34.807Z,17.40
2022-10-22T13:38:03.313Z,17.40
2022-10-22T13:40:32.857Z,17.40
2022-10-22T13:43:00.813Z,17.50
2022-10-22T13:45:28.884Z,17.40
2022-10-22T13:47:57.035Z,17.30
2022-10-22T13:50:25.178Z,17.20
2022-10-22T13:52:55.258Z,17.20
2022-10-22T13:55:26.824Z,17.20
2022-10-22T13:57:57.483Z,17.20
2022-10-22T14:00:26.014Z,17.30
2022-10-22T14:02:56.868Z,17.30
2022-10-22T14:05:25.468Z,17.30
2022-10-22T14:07:54.365Z,17.30
2022-10-22T14:10:24.230Z,17.30
2022-10-22T14:12:53.700Z,17.10
2022-10-22T14:15:25.276Z,17.10
2022-10-22T14:17:56.672Z,17.10
2022-10-22T14:20:27.617Z,17.10
2022-10-22T14:22:56.483Z,17.00
2022-10-22T14:25:26.666Z,17.00
2022-10-22T14:27:54.769Z,17.00
2022-10-22T14:30:26.670Z,17.00
2022-10-22T14:32:55.070Z,17.00
2022-10-22T14:35:24.419Z,17.00
2022-10-22T14:37:53.922Z,17.00
2022-10-22T14:40:22.447Z,17.00
2022-10-22T14:42:50.464Z,17.00
2022-10-22T14:45:21.597Z,17.00
2022-10-22T14:47:51.746Z,17.00
2022-10-22T14:50:20.346Z,17.00
2022-10-22T14:52:48.629Z,17.00
2022-10-22T14:55:18.301Z,17.00
2022-10-22T14:57:46.453Z,16.90
2022-10-22T15:00:16.500Z,16.90
2022-10-22T15:02:44.964Z,16.90
2022-10-22T15:05:15.348Z,16.90
2022-10-22T15:07:43.696Z,16.80
2022-10-22T15:10:11.980Z,16.80
2022-10-22T15:12:39.999Z,16.80
2022-10-22T15:15:09.192Z,16.80
2022-10-22T15:17:37.213Z,16.70
2022-10-22T15:20:06.522Z,16.70
2022-10-22T15:22:36.158Z,16.60
2022-10-22T15:25:05.157Z,16.50
2022-10-22T15:27:33.119Z,16.50
2022-10-22T15:32:29.759Z,16.40
2022-10-22T15:34:57.815Z,16.40
2022-10-22T15:37:25.910Z,16.30
2022-10-22T15:39:55.345Z,16.30
2022-10-22T15:42:24.015Z,16.30
2022-10-22T15:44:59.250Z,16.30
2022-10-22T15:47:29.524Z,16.20
2022-10-22T15:49:57.972Z,16.20
2022-10-22T15:52:26.026Z,16.20
2022-10-22T15:54:55.465Z,16.20
2022-10-22T15:57:23.600Z,16.10
2022-10-22T15:59:52.071Z,16.10
2022-10-22T16:02:20.203Z,16.00
2022-10-22T16:04:48.159Z,16.00
2022-10-22T16:07:17.328Z,15.90
2022-10-22T16:09:46.781Z,15.90
2022-10-22T16:12:17.332Z,15.90
2022-10-22T16:14:45.453Z,15.80
2022-10-22T16:17:13.891Z,15.90
2022-10-22T16:19:41.785Z,15.80
2022-10-22T16:22:13.635Z,15.80
2022-10-22T16:24:41.657Z,15.80
2022-10-22T16:27:10.217Z,15.80
2022-10-22T16:29:40.329Z,15.80
2022-10-22T16:32:08.507Z,15.80
2022-10-22T16:34:36.499Z,15.90
2022-10-22T16:37:09.692Z,15.90
2022-10-22T16:39:37.712Z,15.90
2022-10-22T16:42:06.257Z,15.90
2022-10-22T16:44:34.196Z,15.90
2022-10-22T16:47:03.581Z,15.90
2022-10-22T16:49:31.517Z,15.90
2022-10-22T16:51:59.562Z,15.90
2022-10-22T16:54:27.515Z,15.90
2022-10-22T16:56:55.474Z,15.90
2022-10-22T16:59:23.370Z,15.90
2022-10-22T17:01:51.298Z,15.90
2022-10-22T17:04:20.621Z,15.90
2022-10-22T17:06:48.550Z,16.00
2022-10-22T17:09:16.794Z,16.00
2022-10-22T17:11:45.087Z,16.00
2022-10-22T17:14:13.123Z,16.00
2022-10-22T17:16:41.014Z,16.00
2022-10-22T17:19:08.974Z,16.00
2022-10-22T17:21:38.210Z,16.10
2022-10-22T17:24:06.463Z,16.10
2022-10-22T17:26:34.674Z,16.10
2022-10-22T17:29:02.586Z,16.10
2022-10-22T17:31:32.839Z,16.10
2022-10-22T17:34:01.173Z,16.10
2022-10-22T17:36:33.328Z,16.10
2022-10-22T17:39:07.860Z,16.00
2022-10-22T17:41:38.052Z,16.00
2022-10-22T17:44:08.989Z,16.00
2022-10-22T17:46:37.225Z,15.90
2022-10-22T17:49:07.868Z,15.90
2022-10-22T17:51:35.950Z,15.90
2022-10-22T17:54:08.800Z,15.90
2022-10-22T17:56:40.005Z,15.90
2022-10-22T17:59:08.301Z,15.80
2022-10-22T18:01:43.260Z,15.80
2022-10-22T18:04:14.165Z,15.70
2022-10-22T18:06:42.142Z,15.70
2022-10-22T18:09:17.403Z,15.70
2022-10-22T18:11:47.499Z,15.70
2022-10-22T18:14:15.545Z,15.70
2022-10-22T18:16:43.551Z,15.70
2022-10-22T18:19:12.153Z,15.70
2022-10-22T18:21:40.090Z,15.70
2022-10-22T18:24:08.376Z,15.70
2022-10-22T18:26:38.081Z,15.70
2022-10-22T18:29:06.036Z,15.70
2022-10-22T18:31:34.134Z,15.60
2022-10-22T18:34:02.109Z,15.60
2022-10-22T18:36:30.096Z,15.60
2022-10-22T18:38:59.530Z,15.60
2022-10-22T18:41:28.483Z,15.60
2022-10-22T18:43:59.821Z,15.50
2022-10-22T18:46:28.940Z,15.50
2022-10-22T18:48:57.761Z,15.50
2022-10-22T18:51:26.607Z,15.50
2022-10-22T18:54:05.247Z,15.40
2022-10-22T18:56:40.787Z,15.40
2022-10-22T18:59:16.364Z,15.40
2022-10-22T19:01:44.334Z,15.40
2022-10-22T19:04:13.343Z,15.40
2022-10-22T19:06:45.092Z,15.40
2022-10-22T19:09:14.714Z,15.30
2022-10-22T19:11:43.561Z,15.30
2022-10-22T19:14:14.674Z,15.30
2022-10-22T19:16:42.683Z,15.30
2022-10-22T19:19:10.745Z,15.30
2022-10-22T19:21:38.796Z,15.30
2022-10-22T19:24:07.494Z,15.30
2022-10-22T19:26:35.666Z,15.30
2022-10-22T19:29:04.298Z,15.30
2022-10-22T19:31:33.917Z,15.30
2022-10-22T19:34:02.700Z,15.20
2022-10-22T19:36:32.521Z,15.20
2022-10-22T19:39:01.726Z,15.20
2022-10-22T19:41:31.963Z,15.20
2022-10-22T19:44:01.575Z,15.20
2022-10-22T19:46:32.402Z,15.20
2022-10-22T19:49:03.675Z,15.10
2022-10-22T19:51:33.741Z,15.10
2022-10-22T19:54:03.826Z,15.10
2022-10-22T19:56:32.374Z,15.10
2022-10-22T19:59:00.735Z,15.10
2022-10-22T20:01:28.759Z,15.10
2022-10-22T20:03:56.836Z,15.10
2022-10-22T20:06:26.376Z,15.10
2022-10-22T20:08:56.193Z,15.10
2022-10-22T20:11:26.701Z,15.10
2022-10-22T20:13:55.147Z,15.10
2022-10-22T20:16:26.014Z,15.00
2022-10-22T20:18:54.013Z,15.00
2022-10-22T20:21:22.697Z,15.00
2022-10-22T20:23:56.526Z,15.00
2022-10-22T20:26:27.773Z,15.00
2022-10-22T20:28:56.205Z,15.00
2022-10-22T20:31:27.023Z,15.00
2022-10-22T20:33:57.158Z,15.00
2022-10-22T20:36:25.941Z,14.90
2022-10-22T20:39:00.423Z,14.80
2022-10-22T20:41:28.399Z,14.80
2022-10-22T20:43:56.642Z,14.80
2022-10-22T20:46:26.776Z,14.70
2022-10-22T20:48:57.471Z,14.80
2022-10-22T20:51:25.664Z,14.70
2022-10-22T20:53:55.147Z,14.80
2022-10-22T20:56:23.506Z,14.80
2022-10-22T20:59:03.864Z,14.80
2022-10-22T21:01:33.946Z,14.80
2022-10-22T21:04:01.865Z,14.70
2022-10-22T21:06:30.360Z,14.70
2022-10-22T21:08:59.675Z,14.70
2022-10-22T21:11:27.716Z,14.70
2022-10-22T21:13:55.646Z,14.70
2022-10-22T21:16:23.799Z,14.60
2022-10-22T21:18:51.893Z,14.60
2022-10-22T21:21:20.035Z,14.60
2022-10-22T21:23:50.092Z,14.50
2022-10-22T21:26:20.157Z,14.50
2022-10-22T21:28:48.605Z,14.50
2022-10-22T21:31:22.054Z,14.50
2022-10-22T21:33:51.052Z,14.50
2022-10-22T21:36:22.643Z,14.50
2022-10-22T21:38:51.637Z,14.50
2022-10-22T21:41:24.650Z,14.50
2022-10-22T21:43:52.975Z,14.50
2022-10-22T21:46:22.798Z,14.50
2022-10-22T21:48:54.658Z,14.50
2022-10-22T21:51:23.771Z,14.40
2022-10-22T21:56:23.113Z,14.40
2022-10-22T21:58:51.205Z,14.50
2022-10-22T22:01:19.521Z,14.50
2022-10-22T22:03:49.890Z,14.40
2022-10-22T22:06:21.412Z,14.50
2022-10-22T22:08:50.343Z,14.50
2022-10-22T22:11:23.341Z,14.50
2022-10-22T22:13:51.775Z,14.50
2022-10-22T22:16:25.390Z,14.50
2022-10-22T22:18:56.366Z,14.40
2022-10-22T22:21:24.337Z,14.40
2022-10-22T22:23:52.461Z,14.40
2022-10-22T22:26:26.760Z,14.40
2022-10-22T22:28:57.974Z,14.30
2022-10-22T22:31:28.227Z,14.30
2022-10-22T22:33:59.338Z,14.30
2022-10-22T22:36:27.497Z,14.30
2022-10-22T22:38:56.829Z,14.30
2022-10-22T22:41:26.120Z,14.30
2022-10-22T22:46:22.041Z,14.30
2022-10-22T22:48:50.874Z,14.20
2022-10-22T22:51:19.278Z,14.20
2022-10-22T22:53:47.550Z,14.20
2022-10-22T22:56:17.897Z,14.20
2022-10-22T22:58:47.610Z,14.20
2022-10-22T23:01:17.963Z,14.20
2022-10-22T23:03:47.286Z,14.20
2022-10-22T23:06:16.068Z,14.20
2022-10-22T23:08:44.681Z,14.20
2022-10-22T23:11:14.357Z,14.10
2022-10-22T23:13:43.526Z,14.20
2022-10-22T23:16:16.485Z,14.20
2022-10-22T23:18:44.880Z,14.20
2022-10-22T23:21:15.044Z,14.10
2022-10-22T23:23:45.362Z,14.10
2022-10-22T23:26:14.664Z,14.10
2022-10-22T23:28:42.564Z,14.10
2022-10-22T23:31:14.769Z,14.10
2022-10-22T23:33:43.026Z,14.10
2022-10-22T23:36:11.742Z,14.10
2022-10-22T23:38:41.134Z,14.10
2022-10-22T23:41:10.078Z,14.10
2022-10-22T23:43:38.361Z,14.10
2022-10-22T23:46:07.167Z,14.00
2022-10-22T23:48:36.797Z,14.00
2022-10-22T23:51:06.373Z,14.00
2022-10-22T23:53:34.343Z,14.00
2022-10-22T23:56:05.817Z,14.00
2022-10-22T23:58:34.515Z,14.00
